sensor_id;sensor_type;location;lat;lon;timestamp;P1;durP1;ratioP1;P2;durP2;ratioP2
249;SDS011;109;19.806;-70.704;2023-02-20T00:02:22;23.40;;;4.10;;
249;SDS011;109;19.806;-70.704;2023-02-20T00:04:49;24.27;;;3.70;;
249;SDS011;109;19.806;-70.704;2023-02-20T00:07:15;20.23;;;3.30;;
249;SDS011;109;19.806;-70.704;2023-02-20T00:09:42;31.90;;;5.70;;
249;SDS011;109;19.806;-70.704;2023-02-20T00:12:08;23.47;;;3.93;;
249;SDS011;109;19.806;-70.704;2023-02-20T00:14:35;33.20;;;5.43;;
249;SDS011;109;19.806;-70.704;2023-02-20T00:17:01;28.60;;;4.23;;
249;SDS011;109;19.806;-70.704;2023-02-20T00:19:28;28.00;;;4.23;;
249;SDS011;109;19.806;-70.704;2023-02-20T00:21:54;26.03;;;4.00;;
249;SDS011;109;19.806;-70.704;2023-02-20T00:24:27;25.43;;;4.73;;
249;SDS011;109;19.806;-70.704;2023-02-20T00:26:54;17.03;;;3.80;;
249;SDS011;109;19.806;-70.704;2023-02-20T00:29:27;26.10;;;5.13;;
249;SDS011;109;19.806;-70.704;2023-02-20T00:31:55;12.37;;;4.30;;
249;SDS011;109;19.806;-70.704;2023-02-20T00:34:38;15.47;;;4.40;;
249;SDS011;109;19.806;-70.704;2023-02-20T00:37:19;22.37;;;4.00;;
249;SDS011;109;19.806;-70.704;2023-02-20T00:39:45;10.23;;;4.67;;
249;SDS011;109;19.806;-70.704;2023-02-20T00:42:27;19.73;;;4.90;;
249;SDS011;109;19.806;-70.704;2023-02-20T00:45:08;13.47;;;3.60;;
249;SDS011;109;19.806;-70.704;2023-02-20T00:47:48;20.83;;;4.20;;
249;SDS011;109;19.806;-70.704;2023-02-20T00:50:29;14.90;;;4.10;;
249;SDS011;109;19.806;-70.704;2023-02-20T00:52:55;13.53;;;3.60;;
249;SDS011;109;19.806;-70.704;2023-02-20T00:55:36;25.40;;;4.50;;
249;SDS011;109;19.806;-70.704;2023-02-20T00:58:02;20.23;;;4.23;;
249;SDS011;109;19.806;-70.704;2023-02-20T01:00:42;12.63;;;4.10;;
249;SDS011;109;19.806;-70.704;2023-02-20T01:03:08;18.43;;;4.37;;
249;SDS011;109;19.806;-70.704;2023-02-20T01:05:49;15.67;;;4.60;;
249;SDS011;109;19.806;-70.704;2023-02-20T01:08:15;15.27;;;4.20;;
249;SDS011;109;19.806;-70.704;2023-02-20T01:10:55;22.63;;;5.00;;
249;SDS011;109;19.806;-70.704;2023-02-20T01:13:22;12.50;;;4.27;;
249;SDS011;109;19.806;-70.704;2023-02-20T01:16:03;19.17;;;4.23;;
249;SDS011;109;19.806;-70.704;2023-02-20T01:18:30;19.60;;;4.37;;
249;SDS011;109;19.806;-70.704;2023-02-20T01:21:10;11.63;;;3.60;;
249;SDS011;109;19.806;-70.704;2023-02-20T01:23:36;18.13;;;4.20;;
249;SDS011;109;19.806;-70.704;2023-02-20T01:26:26;19.73;;;5.30;;
249;SDS011;109;19.806;-70.704;2023-02-20T01:28:59;24.60;;;4.93;;
249;SDS011;109;19.806;-70.704;2023-02-20T01:31:45;8.90;;;3.07;;
249;SDS011;109;19.806;-70.704;2023-02-20T01:34:20;18.17;;;4.00;;
249;SDS011;109;19.806;-70.704;2023-02-20T01:37:00;16.27;;;4.03;;
249;SDS011;109;19.806;-70.704;2023-02-20T01:39:27;19.80;;;3.70;;
249;SDS011;109;19.806;-70.704;2023-02-20T01:42:10;12.73;;;3.83;;
249;SDS011;109;19.806;-70.704;2023-02-20T01:44:53;19.47;;;4.23;;
249;SDS011;109;19.806;-70.704;2023-02-20T01:47:33;22.40;;;4.70;;
249;SDS011;109;19.806;-70.704;2023-02-20T01:50:14;19.10;;;3.60;;
249;SDS011;109;19.806;-70.704;2023-02-20T01:52:43;15.90;;;4.17;;
249;SDS011;109;19.806;-70.704;2023-02-20T01:55:30;16.50;;;3.73;;
249;SDS011;109;19.806;-70.704;2023-02-20T01:58:14;11.60;;;3.90;;
249;SDS011;109;19.806;-70.704;2023-02-20T02:01:00;12.83;;;3.90;;
249;SDS011;109;19.806;-70.704;2023-02-20T02:03:29;11.97;;;5.40;;
249;SDS011;109;19.806;-70.704;2023-02-20T02:06:14;13.57;;;3.50;;
249;SDS011;109;19.806;-70.704;2023-02-20T02:08:43;11.90;;;3.37;;
249;SDS011;109;19.806;-70.704;2023-02-20T02:11:23;20.47;;;4.27;;
249;SDS011;109;19.806;-70.704;2023-02-20T02:13:58;18.67;;;3.90;;
249;SDS011;109;19.806;-70.704;2023-02-20T02:16:42;15.10;;;4.10;;
249;SDS011;109;19.806;-70.704;2023-02-20T02:28:40;13.60;;;4.00;;
249;SDS011;109;19.806;-70.704;2023-02-20T02:37:55;17.50;;;3.77;;
249;SDS011;109;19.806;-70.704;2023-02-20T02:40:47;13.93;;;3.27;;
249;SDS011;109;19.806;-70.704;2023-02-20T02:44:06;11.70;;;3.43;;
249;SDS011;109;19.806;-70.704;2023-02-20T02:46:55;20.43;;;4.03;;
249;SDS011;109;19.806;-70.704;2023-02-20T02:49:42;18.50;;;3.83;;
249;SDS011;109;19.806;-70.704;2023-02-20T02:52:25;9.83;;;3.03;;
249;SDS011;109;19.806;-70.704;2023-02-20T02:55:12;11.70;;;3.20;;
249;SDS011;109;19.806;-70.704;2023-02-20T02:57:57;9.70;;;3.20;;
249;SDS011;109;19.806;-70.704;2023-02-20T03:03:10;11.47;;;4.10;;
249;SDS011;109;19.806;-70.704;2023-02-20T03:06:10;20.83;;;4.03;;
249;SDS011;109;19.806;-70.704;2023-02-20T03:08:58;14.10;;;3.20;;
249;SDS011;109;19.806;-70.704;2023-02-20T03:11:45;14.60;;;3.60;;
249;SDS011;109;19.806;-70.704;2023-02-20T03:14:17;11.87;;;3.13;;
249;SDS011;109;19.806;-70.704;2023-02-20T03:20:13;19.03;;;4.03;;
249;SDS011;109;19.806;-70.704;2023-02-20T03:22:50;19.50;;;3.10;;
249;SDS011;109;19.806;-70.704;2023-02-20T03:25:35;16.40;;;4.00;;
249;SDS011;109;19.806;-70.704;2023-02-20T03:34:25;24.07;;;3.90;;
249;SDS011;109;19.806;-70.704;2023-02-20T03:37:15;12.83;;;3.90;;
249;SDS011;109;19.806;-70.704;2023-02-20T03:40:11;9.30;;;3.70;;
249;SDS011;109;19.806;-70.704;2023-02-20T03:43:13;20.70;;;3.93;;
249;SDS011;109;19.806;-70.704;2023-02-20T03:46:05;17.37;;;3.20;;
249;SDS011;109;19.806;-70.704;2023-02-20T03:48:45;19.90;;;3.50;;
249;SDS011;109;19.806;-70.704;2023-02-20T03:51:32;23.77;;;3.33;;
249;SDS011;109;19.806;-70.704;2023-02-20T03:54:34;15.90;;;3.97;;
249;SDS011;109;19.806;-70.704;2023-02-20T03:57:20;12.73;;;3.13;;
249;SDS011;109;19.806;-70.704;2023-02-20T04:00:32;15.30;;;3.20;;
249;SDS011;109;19.806;-70.704;2023-02-20T04:03:21;14.80;;;2.83;;
249;SDS011;109;19.806;-70.704;2023-02-20T04:06:12;13.83;;;3.60;;
249;SDS011;109;19.806;-70.704;2023-02-20T04:08:49;21.37;;;3.50;;
249;SDS011;109;19.806;-70.704;2023-02-20T04:11:39;10.90;;;2.80;;
249;SDS011;109;19.806;-70.704;2023-02-20T04:14:17;14.53;;;3.33;;
249;SDS011;109;19.806;-70.704;2023-02-20T04:17:02;14.83;;;3.00;;
249;SDS011;109;19.806;-70.704;2023-02-20T04:19:42;16.00;;;2.90;;
249;SDS011;109;19.806;-70.704;2023-02-20T04:22:24;12.83;;;3.20;;
249;SDS011;109;19.806;-70.704;2023-02-20T04:25:20;13.53;;;2.90;;
249;SDS011;109;19.806;-70.704;2023-02-20T04:28:12;12.80;;;2.90;;
249;SDS011;109;19.806;-70.704;2023-02-20T04:30:59;9.53;;;2.73;;
249;SDS011;109;19.806;-70.704;2023-02-20T04:33:35;13.80;;;3.20;;
249;SDS011;109;19.806;-70.704;2023-02-20T04:36:26;20.27;;;3.80;;
249;SDS011;109;19.806;-70.704;2023-02-20T04:39:06;16.47;;;3.77;;
249;SDS011;109;19.806;-70.704;2023-02-20T04:41:46;9.77;;;2.90;;
249;SDS011;109;19.806;-70.704;2023-02-20T04:44:12;17.00;;;3.17;;
249;SDS011;109;19.806;-70.704;2023-02-20T04:47:09;12.13;;;3.50;;
249;SDS011;109;19.806;-70.704;2023-02-20T04:49:45;9.73;;;2.60;;
249;SDS011;109;19.806;-70.704;2023-02-20T04:52:32;6.03;;;2.30;;
249;SDS011;109;19.806;-70.704;2023-02-20T04:55:13;16.57;;;3.20;;
249;SDS011;109;19.806;-70.704;2023-02-20T04:57:39;11.67;;;2.77;;
249;SDS011;109;19.806;-70.704;2023-02-20T05:00:20;13.93;;;2.80;;
249;SDS011;109;19.806;-70.704;2023-02-20T05:02:47;11.27;;;2.83;;
249;SDS011;109;19.806;-70.704;2023-02-20T05:05:28;10.93;;;2.93;;
249;SDS011;109;19.806;-70.704;2023-02-20T05:07:55;15.70;;;3.13;;
249;SDS011;109;19.806;-70.704;2023-02-20T05:10:38;22.27;;;4.30;;
249;SDS011;109;19.806;-70.704;2023-02-20T05:13:04;20.27;;;3.80;;
249;SDS011;109;19.806;-70.704;2023-02-20T05:15:44;20.33;;;3.10;;
249;SDS011;109;19.806;-70.704;2023-02-20T05:18:10;13.30;;;2.90;;
249;SDS011;109;19.806;-70.704;2023-02-20T05:20:50;10.53;;;2.67;;
249;SDS011;109;19.806;-70.704;2023-02-20T05:23:41;12.10;;;3.20;;
249;SDS011;109;19.806;-70.704;2023-02-20T05:26:22;11.83;;;3.03;;
249;SDS011;109;19.806;-70.704;2023-02-20T05:28:48;16.07;;;3.40;;
249;SDS011;109;19.806;-70.704;2023-02-20T05:31:28;13.80;;;3.20;;
249;SDS011;109;19.806;-70.704;2023-02-20T05:33:54;19.87;;;3.57;;
249;SDS011;109;19.806;-70.704;2023-02-20T05:36:40;15.53;;;3.20;;
249;SDS011;109;19.806;-70.704;2023-02-20T05:39:27;12.50;;;3.03;;
249;SDS011;109;19.806;-70.704;2023-02-20T05:42:08;9.63;;;2.80;;
249;SDS011;109;19.806;-70.704;2023-02-20T05:44:35;9.03;;;2.57;;
249;SDS011;109;19.806;-70.704;2023-02-20T05:47:15;17.53;;;2.83;;
249;SDS011;109;19.806;-70.704;2023-02-20T05:49:42;12.27;;;3.00;;
249;SDS011;109;19.806;-70.704;2023-02-20T05:52:22;12.70;;;3.20;;
249;SDS011;109;19.806;-70.704;2023-02-20T05:54:48;8.30;;;2.50;;
249;SDS011;109;19.806;-70.704;2023-02-20T05:57:29;12.47;;;2.90;;
249;SDS011;109;19.806;-70.704;2023-02-20T06:00:09;19.23;;;4.10;;
249;SDS011;109;19.806;-70.704;2023-02-20T06:02:39;15.70;;;4.10;;
249;SDS011;109;19.806;-70.704;2023-02-20T06:05:18;13.80;;;3.33;;
249;SDS011;109;19.806;-70.704;2023-02-20T06:07:45;17.53;;;3.13;;
249;SDS011;109;19.806;-70.704;2023-02-20T06:10:26;16.53;;;3.20;;
249;SDS011;109;19.806;-70.704;2023-02-20T06:12:52;21.03;;;4.53;;
249;SDS011;109;19.806;-70.704;2023-02-20T06:15:33;10.97;;;3.30;;
249;SDS011;109;19.806;-70.704;2023-02-20T06:17:59;12.90;;;3.77;;
249;SDS011;109;19.806;-70.704;2023-02-20T06:20:39;13.63;;;4.20;;
249;SDS011;109;19.806;-70.704;2023-02-20T06:23:05;20.43;;;5.63;;
249;SDS011;109;19.806;-70.704;2023-02-20T06:25:45;10.53;;;3.90;;
249;SDS011;109;19.806;-70.704;2023-02-20T06:28:11;16.30;;;3.70;;
249;SDS011;109;19.806;-70.704;2023-02-20T06:30:53;14.73;;;3.97;;
249;SDS011;109;19.806;-70.704;2023-02-20T06:33:27;11.00;;;3.17;;
249;SDS011;109;19.806;-70.704;2023-02-20T06:36:31;14.33;;;3.10;;
249;SDS011;109;19.806;-70.704;2023-02-20T06:39:08;11.00;;;3.10;;
249;SDS011;109;19.806;-70.704;2023-02-20T06:41:50;8.43;;;2.90;;
249;SDS011;109;19.806;-70.704;2023-02-20T06:44:16;11.70;;;3.10;;
249;SDS011;109;19.806;-70.704;2023-02-20T06:46:56;14.10;;;3.47;;
249;SDS011;109;19.806;-70.704;2023-02-20T06:49:22;13.40;;;3.30;;
249;SDS011;109;19.806;-70.704;2023-02-20T06:52:02;16.03;;;3.70;;
249;SDS011;109;19.806;-70.704;2023-02-20T06:54:30;13.53;;;3.33;;
249;SDS011;109;19.806;-70.704;2023-02-20T06:57:12;15.73;;;4.00;;
249;SDS011;109;19.806;-70.704;2023-02-20T06:59:38;16.47;;;3.80;;
249;SDS011;109;19.806;-70.704;2023-02-20T07:02:21;12.17;;;3.53;;
249;SDS011;109;19.806;-70.704;2023-02-20T07:05:01;13.40;;;3.93;;
249;SDS011;109;19.806;-70.704;2023-02-20T07:07:28;13.13;;;3.07;;
249;SDS011;109;19.806;-70.704;2023-02-20T07:10:08;9.00;;;3.00;;
249;SDS011;109;19.806;-70.704;2023-02-20T07:12:34;14.03;;;3.10;;
249;SDS011;109;19.806;-70.704;2023-02-20T07:15:14;16.50;;;3.50;;
249;SDS011;109;19.806;-70.704;2023-02-20T07:17:40;16.20;;;3.50;;
249;SDS011;109;19.806;-70.704;2023-02-20T07:20:27;7.87;;;3.20;;
249;SDS011;109;19.806;-70.704;2023-02-20T07:23:01;14.23;;;3.47;;
249;SDS011;109;19.806;-70.704;2023-02-20T07:25:41;12.33;;;2.90;;
249;SDS011;109;19.806;-70.704;2023-02-20T07:28:07;15.53;;;4.33;;
249;SDS011;109;19.806;-70.704;2023-02-20T07:30:48;16.50;;;2.93;;
249;SDS011;109;19.806;-70.704;2023-02-20T07:33:15;10.73;;;3.23;;
249;SDS011;109;19.806;-70.704;2023-02-20T07:36:03;14.53;;;2.90;;
249;SDS011;109;19.806;-70.704;2023-02-20T07:38:51;12.53;;;3.40;;
249;SDS011;109;19.806;-70.704;2023-02-20T07:41:33;10.27;;;3.07;;
249;SDS011;109;19.806;-70.704;2023-02-20T07:44:02;10.23;;;3.20;;
249;SDS011;109;19.806;-70.704;2023-02-20T07:46:44;21.07;;;3.40;;
249;SDS011;109;19.806;-70.704;2023-02-20T07:49:10;15.53;;;3.80;;
249;SDS011;109;19.806;-70.704;2023-02-20T07:51:51;16.87;;;5.10;;
249;SDS011;109;19.806;-70.704;2023-02-20T07:54:17;11.83;;;3.47;;
249;SDS011;109;19.806;-70.704;2023-02-20T07:56:58;12.60;;;3.50;;
249;SDS011;109;19.806;-70.704;2023-02-20T07:59:24;12.00;;;3.73;;
249;SDS011;109;19.806;-70.704;2023-02-20T08:02:04;13.23;;;3.90;;
249;SDS011;109;19.806;-70.704;2023-02-20T08:04:30;8.70;;;3.50;;
249;SDS011;109;19.806;-70.704;2023-02-20T08:07:11;9.87;;;3.60;;
249;SDS011;109;19.806;-70.704;2023-02-20T08:09:37;12.60;;;3.40;;
249;SDS011;109;19.806;-70.704;2023-02-20T08:12:17;13.30;;;3.33;;
249;SDS011;109;19.806;-70.704;2023-02-20T08:15:04;10.30;;;3.40;;
249;SDS011;109;19.806;-70.704;2023-02-20T08:17:38;7.87;;;3.10;;
249;SDS011;109;19.806;-70.704;2023-02-20T08:20:18;15.50;;;3.17;;
249;SDS011;109;19.806;-70.704;2023-02-20T08:22:46;9.73;;;4.30;;
249;SDS011;109;19.806;-70.704;2023-02-20T08:25:28;8.60;;;3.30;;
249;SDS011;109;19.806;-70.704;2023-02-20T08:27:54;10.17;;;2.90;;
249;SDS011;109;19.806;-70.704;2023-02-20T08:30:34;11.37;;;3.17;;
249;SDS011;109;19.806;-70.704;2023-02-20T08:33:00;10.63;;;3.00;;
249;SDS011;109;19.806;-70.704;2023-02-20T08:35:46;6.83;;;2.90;;
249;SDS011;109;19.806;-70.704;2023-02-20T08:41:09;11.20;;;2.70;;
249;SDS011;109;19.806;-70.704;2023-02-20T08:43:37;13.07;;;3.53;;
249;SDS011;109;19.806;-70.704;2023-02-20T08:46:18;14.20;;;3.00;;
249;SDS011;109;19.806;-70.704;2023-02-20T08:48:44;12.00;;;2.70;;
249;SDS011;109;19.806;-70.704;2023-02-20T08:51:24;8.27;;;3.00;;
249;SDS011;109;19.806;-70.704;2023-02-20T08:53:51;17.70;;;3.97;;
249;SDS011;109;19.806;-70.704;2023-02-20T08:56:32;13.77;;;3.03;;
249;SDS011;109;19.806;-70.704;2023-02-20T08:58:58;13.60;;;3.23;;
249;SDS011;109;19.806;-70.704;2023-02-20T09:01:45;13.93;;;3.47;;
249;SDS011;109;19.806;-70.704;2023-02-20T09:04:19;10.83;;;3.30;;
249;SDS011;109;19.806;-70.704;2023-02-20T09:06:59;12.10;;;3.07;;
249;SDS011;109;19.806;-70.704;2023-02-20T09:09:39;16.37;;;4.00;;
249;SDS011;109;19.806;-70.704;2023-02-20T09:12:06;10.13;;;3.07;;
249;SDS011;109;19.806;-70.704;2023-02-20T09:14:48;14.80;;;3.67;;
249;SDS011;109;19.806;-70.704;2023-02-20T09:17:22;8.97;;;2.87;;
249;SDS011;109;19.806;-70.704;2023-02-20T09:20:02;11.00;;;2.60;;
249;SDS011;109;19.806;-70.704;2023-02-20T09:22:29;15.63;;;3.70;;
249;SDS011;109;19.806;-70.704;2023-02-20T09:25:10;16.30;;;3.10;;
249;SDS011;109;19.806;-70.704;2023-02-20T09:27:37;14.93;;;2.60;;
249;SDS011;109;19.806;-70.704;2023-02-20T09:30:18;14.03;;;3.50;;
249;SDS011;109;19.806;-70.704;2023-02-20T09:32:46;11.87;;;3.30;;
249;SDS011;109;19.806;-70.704;2023-02-20T09:35:32;18.00;;;3.60;;
249;SDS011;109;19.806;-70.704;2023-02-20T09:38:12;7.57;;;2.77;;
249;SDS011;109;19.806;-70.704;2023-02-20T09:40:53;9.93;;;3.40;;
249;SDS011;109;19.806;-70.704;2023-02-20T09:43:44;14.07;;;3.40;;
249;SDS011;109;19.806;-70.704;2023-02-20T09:46:29;7.10;;;2.87;;
249;SDS011;109;19.806;-70.704;2023-02-20T09:51:40;11.97;;;2.93;;
249;SDS011;109;19.806;-70.704;2023-02-20T09:54:21;14.43;;;3.13;;
249;SDS011;109;19.806;-70.704;2023-02-20T09:57:16;17.07;;;3.80;;
249;SDS011;109;19.806;-70.704;2023-02-20T10:00:05;14.10;;;3.60;;
249;SDS011;109;19.806;-70.704;2023-02-20T10:02:54;15.73;;;3.30;;
249;SDS011;109;19.806;-70.704;2023-02-20T10:05:42;18.63;;;4.17;;
249;SDS011;109;19.806;-70.704;2023-02-20T10:08:10;17.60;;;4.17;;
249;SDS011;109;19.806;-70.704;2023-02-20T10:10:57;12.47;;;2.90;;
249;SDS011;109;19.806;-70.704;2023-02-20T10:13:42;13.93;;;3.40;;
249;SDS011;109;19.806;-70.704;2023-02-20T10:19:35;13.30;;;5.17;;
249;SDS011;109;19.806;-70.704;2023-02-20T10:25:27;16.73;;;3.90;;
249;SDS011;109;19.806;-70.704;2023-02-20T10:28:09;20.67;;;3.70;;
249;SDS011;109;19.806;-70.704;2023-02-20T10:33:43;14.50;;;3.37;;
249;SDS011;109;19.806;-70.704;2023-02-20T10:36:39;13.07;;;3.47;;
249;SDS011;109;19.806;-70.704;2023-02-20T10:39:19;10.30;;;3.47;;
249;SDS011;109;19.806;-70.704;2023-02-20T10:44:53;12.77;;;3.93;;
249;SDS011;109;19.806;-70.704;2023-02-20T10:50:22;11.90;;;3.83;;
249;SDS011;109;19.806;-70.704;2023-02-20T10:55:40;13.30;;;3.50;;
249;SDS011;109;19.806;-70.704;2023-02-20T10:58:30;17.10;;;4.03;;
249;SDS011;109;19.806;-70.704;2023-02-20T11:01:09;15.67;;;3.77;;
249;SDS011;109;19.806;-70.704;2023-02-20T11:06:11;13.60;;;4.23;;
249;SDS011;109;19.806;-70.704;2023-02-20T11:08:41;13.93;;;4.00;;
249;SDS011;109;19.806;-70.704;2023-02-20T11:11:28;14.27;;;3.60;;
249;SDS011;109;19.806;-70.704;2023-02-20T11:13:59;18.57;;;3.60;;
249;SDS011;109;19.806;-70.704;2023-02-20T11:19:45;15.93;;;4.60;;
249;SDS011;109;19.806;-70.704;2023-02-20T11:22:16;13.97;;;4.33;;
249;SDS011;109;19.806;-70.704;2023-02-20T11:30:33;18.20;;;4.33;;
249;SDS011;109;19.806;-70.704;2023-02-20T11:35:43;12.43;;;3.60;;
249;SDS011;109;19.806;-70.704;2023-02-20T11:43:23;10.80;;;3.93;;
249;SDS011;109;19.806;-70.704;2023-02-20T11:46:37;12.13;;;3.80;;
249;SDS011;109;19.806;-70.704;2023-02-20T11:48:59;18.03;;;3.90;;
249;SDS011;109;19.806;-70.704;2023-02-20T11:51:45;14.10;;;3.80;;
249;SDS011;109;19.806;-70.704;2023-02-20T11:54:21;14.43;;;4.17;;
249;SDS011;109;19.806;-70.704;2023-02-20T11:59:44;15.63;;;4.40;;
249;SDS011;109;19.806;-70.704;2023-02-20T12:05:00;11.93;;;3.53;;
249;SDS011;109;19.806;-70.704;2023-02-20T12:12:50;12.60;;;3.60;;
249;SDS011;109;19.806;-70.704;2023-02-20T12:15:19;10.63;;;4.43;;
249;SDS011;109;19.806;-70.704;2023-02-20T12:20:33;14.60;;;9.70;;
249;SDS011;109;19.806;-70.704;2023-02-20T12:36:40;17.40;;;14.00;;
249;SDS011;109;19.806;-70.704;2023-02-20T12:42:02;24.20;;;15.50;;
249;SDS011;109;19.806;-70.704;2023-02-20T13:00:52;37.80;;;25.43;;
249;SDS011;109;19.806;-70.704;2023-02-20T13:06:03;20.20;;;16.03;;
249;SDS011;109;19.806;-70.704;2023-02-20T13:11:17;18.13;;;15.30;;
249;SDS011;109;19.806;-70.704;2023-02-20T13:16:30;16.43;;;10.00;;
249;SDS011;109;19.806;-70.704;2023-02-20T13:22:01;21.83;;;16.30;;
249;SDS011;109;19.806;-70.704;2023-02-20T13:24:29;22.73;;;12.43;;
249;SDS011;109;19.806;-70.704;2023-02-20T13:27:04;10.50;;;7.20;;
249;SDS011;109;19.806;-70.704;2023-02-20T13:29:33;22.40;;;9.57;;
249;SDS011;109;19.806;-70.704;2023-02-20T13:34:42;10.60;;;6.60;;
249;SDS011;109;19.806;-70.704;2023-02-20T13:40:38;12.17;;;5.87;;
249;SDS011;109;19.806;-70.704;2023-02-20T13:45:44;17.77;;;6.27;;
249;SDS011;109;19.806;-70.704;2023-02-20T13:48:18;15.80;;;3.40;;
249;SDS011;109;19.806;-70.704;2023-02-20T13:53:45;16.27;;;3.67;;
249;SDS011;109;19.806;-70.704;2023-02-20T13:58:51;11.17;;;3.80;;
249;SDS011;109;19.806;-70.704;2023-02-20T14:01:22;10.70;;;3.00;;
249;SDS011;109;19.806;-70.704;2023-02-20T14:04:02;7.80;;;3.20;;
249;SDS011;109;19.806;-70.704;2023-02-20T14:06:30;16.40;;;3.30;;
249;SDS011;109;19.806;-70.704;2023-02-20T14:09:15;8.30;;;2.90;;
249;SDS011;109;19.806;-70.704;2023-02-20T14:11:49;15.97;;;4.20;;
249;SDS011;109;19.806;-70.704;2023-02-20T14:14:27;16.63;;;4.80;;
249;SDS011;109;19.806;-70.704;2023-02-20T14:17:10;9.20;;;2.60;;
249;SDS011;109;19.806;-70.704;2023-02-20T14:19:44;17.60;;;2.77;;
249;SDS011;109;19.806;-70.704;2023-02-20T14:22:31;11.47;;;2.67;;
249;SDS011;109;19.806;-70.704;2023-02-20T14:25:14;10.97;;;3.40;;
249;SDS011;109;19.806;-70.704;2023-02-20T14:27:45;12.33;;;2.50;;
249;SDS011;109;19.806;-70.704;2023-02-20T14:30:16;7.40;;;2.67;;
249;SDS011;109;19.806;-70.704;2023-02-20T14:32:46;12.13;;;2.93;;
249;SDS011;109;19.806;-70.704;2023-02-20T14:36:17;16.57;;;3.17;;
249;SDS011;109;19.806;-70.704;2023-02-20T14:38:22;14.90;;;2.77;;
249;SDS011;109;19.806;-70.704;2023-02-20T14:41:16;9.40;;;2.50;;
249;SDS011;109;19.806;-70.704;2023-02-20T14:43:52;14.60;;;3.20;;
249;SDS011;109;19.806;-70.704;2023-02-20T14:46:43;13.27;;;2.93;;
249;SDS011;109;19.806;-70.704;2023-02-20T14:49:13;22.37;;;4.43;;
249;SDS011;109;19.806;-70.704;2023-02-20T14:51:49;17.30;;;3.10;;
249;SDS011;109;19.806;-70.704;2023-02-20T14:54:17;12.00;;;3.20;;
249;SDS011;109;19.806;-70.704;2023-02-20T14:56:50;23.30;;;3.57;;
249;SDS011;109;19.806;-70.704;2023-02-20T14:59:27;15.40;;;3.57;;
249;SDS011;109;19.806;-70.704;2023-02-20T15:01:56;12.60;;;3.23;;
249;SDS011;109;19.806;-70.704;2023-02-20T15:04:25;7.77;;;2.90;;
249;SDS011;109;19.806;-70.704;2023-02-20T15:06:54;32.90;;;5.30;;
249;SDS011;109;19.806;-70.704;2023-02-20T15:09:35;12.00;;;3.57;;
249;SDS011;109;19.806;-70.704;2023-02-20T15:12:06;19.63;;;3.60;;
249;SDS011;109;19.806;-70.704;2023-02-20T15:14:52;17.20;;;3.07;;
249;SDS011;109;19.806;-70.704;2023-02-20T15:17:24;22.80;;;4.00;;
249;SDS011;109;19.806;-70.704;2023-02-20T15:19:55;15.30;;;3.50;;
249;SDS011;109;19.806;-70.704;2023-02-20T15:22:23;16.00;;;4.40;;
249;SDS011;109;19.806;-70.704;2023-02-20T15:24:50;23.90;;;3.83;;
249;SDS011;109;19.806;-70.704;2023-02-20T15:27:20;24.27;;;4.67;;
249;SDS011;109;19.806;-70.704;2023-02-20T15:32:40;18.60;;;4.40;;
249;SDS011;109;19.806;-70.704;2023-02-20T15:35:12;17.73;;;3.33;;
249;SDS011;109;19.806;-70.704;2023-02-20T15:37:43;20.23;;;5.77;;
249;SDS011;109;19.806;-70.704;2023-02-20T15:40:21;20.40;;;3.40;;
249;SDS011;109;19.806;-70.704;2023-02-20T15:42:50;16.33;;;3.27;;
249;SDS011;109;19.806;-70.704;2023-02-20T15:45:28;13.70;;;3.13;;
249;SDS011;109;19.806;-70.704;2023-02-20T15:47:56;16.00;;;2.90;;
249;SDS011;109;19.806;-70.704;2023-02-20T15:50:23;21.33;;;3.43;;
249;SDS011;109;19.806;-70.704;2023-02-20T15:52:52;24.73;;;3.40;;
249;SDS011;109;19.806;-70.704;2023-02-20T15:55:20;18.30;;;3.00;;
249;SDS011;109;19.806;-70.704;2023-02-20T15:57:48;12.20;;;2.70;;
249;SDS011;109;19.806;-70.704;2023-02-20T16:00:21;24.13;;;3.30;;
249;SDS011;109;19.806;-70.704;2023-02-20T16:02:51;8.67;;;2.37;;
249;SDS011;109;19.806;-70.704;2023-02-20T16:05:18;21.20;;;3.67;;
249;SDS011;109;19.806;-70.704;2023-02-20T16:07:45;21.43;;;3.90;;
249;SDS011;109;19.806;-70.704;2023-02-20T16:10:13;13.33;;;2.90;;
249;SDS011;109;19.806;-70.704;2023-02-20T16:12:41;12.97;;;2.60;;
249;SDS011;109;19.806;-70.704;2023-02-20T16:15:15;20.90;;;3.83;;
249;SDS011;109;19.806;-70.704;2023-02-20T16:17:43;14.70;;;3.77;;
249;SDS011;109;19.806;-70.704;2023-02-20T16:20:20;25.03;;;4.80;;
249;SDS011;109;19.806;-70.704;2023-02-20T16:22:49;30.57;;;4.77;;
249;SDS011;109;19.806;-70.704;2023-02-20T16:25:16;18.33;;;3.50;;
249;SDS011;109;19.806;-70.704;2023-02-20T16:27:44;21.37;;;3.53;;
249;SDS011;109;19.806;-70.704;2023-02-20T16:30:15;23.87;;;3.30;;
249;SDS011;109;19.806;-70.704;2023-02-20T16:32:44;14.53;;;3.07;;
249;SDS011;109;19.806;-70.704;2023-02-20T16:35:11;30.03;;;3.50;;
249;SDS011;109;19.806;-70.704;2023-02-20T16:37:39;24.17;;;3.30;;
249;SDS011;109;19.806;-70.704;2023-02-20T16:40:05;12.40;;;3.17;;
249;SDS011;109;19.806;-70.704;2023-02-20T16:42:33;21.27;;;3.70;;
249;SDS011;109;19.806;-70.704;2023-02-20T16:45:13;23.47;;;3.80;;
249;SDS011;109;19.806;-70.704;2023-02-20T16:47:41;14.93;;;4.10;;
249;SDS011;109;19.806;-70.704;2023-02-20T16:50:15;16.50;;;3.47;;
249;SDS011;109;19.806;-70.704;2023-02-20T16:52:45;20.90;;;3.37;;
249;SDS011;109;19.806;-70.704;2023-02-20T16:55:20;24.47;;;3.73;;
249;SDS011;109;19.806;-70.704;2023-02-20T16:57:47;19.40;;;3.30;;
249;SDS011;109;19.806;-70.704;2023-02-20T17:00:14;11.60;;;2.77;;
249;SDS011;109;19.806;-70.704;2023-02-20T17:02:42;14.73;;;2.73;;
249;SDS011;109;19.806;-70.704;2023-02-20T17:05:09;13.47;;;2.73;;
249;SDS011;109;19.806;-70.704;2023-02-20T17:07:35;11.50;;;3.07;;
249;SDS011;109;19.806;-70.704;2023-02-20T17:10:03;19.40;;;3.70;;
249;SDS011;109;19.806;-70.704;2023-02-20T17:12:30;15.00;;;3.63;;
249;SDS011;109;19.806;-70.704;2023-02-20T17:14:59;20.50;;;3.40;;
249;SDS011;109;19.806;-70.704;2023-02-20T17:17:26;13.20;;;2.93;;
249;SDS011;109;19.806;-70.704;2023-02-20T17:19:53;24.50;;;4.13;;
249;SDS011;109;19.806;-70.704;2023-02-20T17:22:21;19.07;;;3.50;;
249;SDS011;109;19.806;-70.704;2023-02-20T17:24:49;15.40;;;3.60;;
249;SDS011;109;19.806;-70.704;2023-02-20T17:27:16;28.30;;;4.10;;
249;SDS011;109;19.806;-70.704;2023-02-20T17:29:43;27.50;;;4.17;;
249;SDS011;109;19.806;-70.704;2023-02-20T17:32:11;35.03;;;4.47;;
249;SDS011;109;19.806;-70.704;2023-02-20T17:34:38;35.63;;;5.33;;
249;SDS011;109;19.806;-70.704;2023-02-20T17:37:06;20.83;;;2.80;;
249;SDS011;109;19.806;-70.704;2023-02-20T17:39:33;21.63;;;3.30;;
249;SDS011;109;19.806;-70.704;2023-02-20T17:42:00;17.83;;;3.10;;
249;SDS011;109;19.806;-70.704;2023-02-20T17:44:27;15.53;;;2.90;;
249;SDS011;109;19.806;-70.704;2023-02-20T17:46:56;21.87;;;3.53;;
249;SDS011;109;19.806;-70.704;2023-02-20T17:49:24;18.23;;;3.50;;
249;SDS011;109;19.806;-70.704;2023-02-20T17:51:52;13.30;;;3.60;;
249;SDS011;109;19.806;-70.704;2023-02-20T17:54:23;11.57;;;3.33;;
249;SDS011;109;19.806;-70.704;2023-02-20T17:56:50;11.73;;;2.77;;
249;SDS011;109;19.806;-70.704;2023-02-20T17:59:17;6.90;;;2.17;;
249;SDS011;109;19.806;-70.704;2023-02-20T18:01:44;15.10;;;3.77;;
249;SDS011;109;19.806;-70.704;2023-02-20T18:04:12;14.73;;;3.37;;
249;SDS011;109;19.806;-70.704;2023-02-20T18:06:39;18.07;;;4.23;;
249;SDS011;109;19.806;-70.704;2023-02-20T18:09:06;22.73;;;4.07;;
249;SDS011;109;19.806;-70.704;2023-02-20T18:11:34;19.53;;;3.13;;
249;SDS011;109;19.806;-70.704;2023-02-20T18:14:01;12.60;;;3.50;;
249;SDS011;109;19.806;-70.704;2023-02-20T18:16:28;11.77;;;3.03;;
249;SDS011;109;19.806;-70.704;2023-02-20T18:18:54;23.40;;;3.63;;
249;SDS011;109;19.806;-70.704;2023-02-20T18:21:24;17.80;;;3.83;;